Time;durP1;ratioP1;P1;durP2;ratioP2;P2;SDS_P1;SDS_P2;PMS_P1;PMS_P2;Temp;Humidity;BMP_temperature;BMP_pressure;BME280_temperature;BME280_humidity;BME280_pressure;Samples;Min_cycle;Max_cycle;Signal;HPM_P1;HPM_P2
2024/04/10 00:03:44;;;;;;;;;31.00;26.00;;;;;;;;6491730;39;8933;-61
2024/04/10 00:09:46;;;;;;;;;24.25;24.00;;;;;;;;6491065;39;9907;-62
2024/04/10 00:16:00;;;;;;;;;24.67;19.33;;;;;;;;6491351;39;9081;-62
2024/04/10 00:22:03;;;;;;;;;21.50;21.25;;;;;;;;6490421;39;8949;-61
2024/04/10 00:28:04;;;;;;;;;26.00;22.25;;;;;;;;6490861;46;8893;-61
2024/04/10 00:34:06;;;;;;;;;20.50;19.00;;;;;;;;6492049;39;8864;-61
2024/04/10 00:40:08;;;;;;;;;23.50;18.50;;;;;;;;6491277;46;8900;-61
2024/04/10 00:46:21;;;;;;;;;17.25;17.25;;;;;;;;6490311;46;8980;-62
2024/04/10 00:52:23;;;;;;;;;21.25;19.75;;;;;;;;6490684;31;8943;-62
2024/04/10 00:58:25;;;;;;;;;15.75;15.00;;;;;;;;6490713;46;9029;-62
2024/04/10 01:04:27;;;;;;;;;20.25;17.75;;;;;;;;6310571;31;10000645;-61
2024/04/10 01:10:30;;;;;;;;;23.25;19.75;;;;;;;;6491537;39;8883;-62
2024/04/10 01:16:32;;;;;;;;;18.50;13.75;;;;;;;;6489748;39;8924;-62
2024/04/10 01:22:36;;;;;;;;;19.25;17.25;;;;;;;;6490959;39;8880;-63
2024/04/10 01:28:37;;;;;;;;;19.50;18.00;;;;;;;;6490025;39;8931;-61
2024/04/10 01:34:38;;;;;;;;;18.00;16.00;;;;;;;;6490772;31;9593;-61
2024/04/10 01:40:39;;;;;;;;;20.75;18.00;;;;;;;;6490180;39;8988;-65
2024/04/10 01:46:40;;;;;;;;;19.50;17.75;;;;;;;;6491059;31;9030;-61
2024/04/10 01:52:41;;;;;;;;;21.25;20.00;;;;;;;;6490167;39;8889;-62
2024/04/10 01:58:42;;;;;;;;;20.75;19.50;;;;;;;;6489824;39;8967;-62
2024/04/10 02:04:43;;;;;;;;;22.00;17.25;;;;;;;;6490231;39;9922;-62
2024/04/10 02:10:44;;;;;;;;;19.00;17.50;;;;;;;;6489775;39;8911;-62
2024/04/10 02:16:48;;;;;;;;;19.00;18.00;;;;;;;;6488926;47;8961;-62
2024/04/10 02:22:49;;;;;;;;;20.00;18.00;;;;;;;;6490743;39;8898;-62
2024/04/10 02:28:50;;;;;;;;;25.50;21.50;;;;;;;;6490531;39;8893;-61
2024/04/10 02:34:51;;;;;;;;;24.00;20.75;;;;;;;;6491400;31;8899;-61
2024/04/10 02:40:52;;;;;;;;;24.25;21.50;;;;;;;;6492725;39;9545;-61
2024/04/10 02:46:54;;;;;;;;;25.00;24.25;;;;;;;;6491971;39;8961;-64
2024/04/10 02:52:55;;;;;;;;;28.50;23.25;;;;;;;;6491668;39;8992;-60
2024/04/10 02:58:56;;;;;;;;;19.25;17.50;;;;;;;;6492791;31;8966;-60
2024/04/10 03:04:57;;;;;;;;;24.75;24.00;;;;;;;;6491908;31;8880;-62
2024/04/10 03:10:58;;;;;;;;;23.00;20.00;;;;;;;;6491453;46;8851;-61
2024/04/10 03:17:00;;;;;;;;;25.25;24.00;;;;;;;;6492008;39;9113;-61
2024/04/10 03:23:01;;;;;;;;;28.00;25.00;;;;;;;;6491448;39;8907;-61
2024/04/10 03:29:03;;;;;;;;;25.75;23.00;;;;;;;;6537401;31;8952;-60
2024/04/10 03:35:04;;;;;;;;;29.25;24.75;;;;;;;;6491484;39;8867;-62
2024/04/10 03:41:05;;;;;;;;;28.00;24.75;;;;;;;;6492372;31;9138;-64
2024/04/10 03:47:06;;;;;;;;;22.00;19.00;;;;;;;;6491754;39;8927;-62
2024/04/10 03:53:07;;;;;;;;;29.00;27.75;;;;;;;;6491406;46;8963;-60
2024/04/10 03:59:08;;;;;;;;;30.00;29.25;;;;;;;;6491410;39;9042;-61
2024/04/10 04:05:09;;;;;;;;;29.25;29.25;;;;;;;;6471149;39;9084;-64
2024/04/10 04:11:11;;;;;;;;;31.00;27.50;;;;;;;;6492875;46;8868;-63
2024/04/10 04:17:14;;;;;;;;;29.00;27.50;;;;;;;;6491646;39;8877;-64
2024/04/10 04:23:17;;;;;;;;;28.25;25.50;;;;;;;;6491933;39;8918;-64
2024/04/10 04:29:19;;;;;;;;;27.75;26.00;;;;;;;;6492666;31;8854;-64
2024/04/10 04:35:21;;;;;;;;;30.00;26.50;;;;;;;;6489848;31;9067;-63
2024/04/10 04:41:23;;;;;;;;;34.25;32.75;;;;;;;;6491486;39;8873;-64
2024/04/10 04:47:28;;;;;;;;;33.50;30.25;;;;;;;;6493068;31;8968;-64
2024/04/10 04:53:32;;;;;;;;;31.50;29.75;;;;;;;;6491741;39;8978;-64
2024/04/10 04:59:35;;;;;;;;;35.00;30.50;;;;;;;;6492839;39;9041;-65
2024/04/10 05:05:38;;;;;;;;;39.75;35.00;;;;;;;;6491748;46;8952;-67
2024/04/10 05:11:39;;;;;;;;;36.75;30.75;;;;;;;;6492232;39;8890;-65
2024/04/10 05:17:43;;;;;;;;;34.00;30.50;;;;;;;;6492160;39;9609;-65
2024/04/10 05:23:46;;;;;;;;;38.75;34.50;;;;;;;;6490939;39;8903;-64
2024/04/10 05:29:59;;;;;;;;;36.75;33.25;;;;;;;;6477428;39;9021;-64
2024/04/10 05:36:05;;;;;;;;;35.75;31.50;;;;;;;;6490250;39;9045;-64
2024/04/10 05:42:06;;;;;;;;;34.50;31.25;;;;;;;;6492623;31;9538;-65
2024/04/10 05:48:09;;;;;;;;;31.50;29.50;;;;;;;;6490674;31;8855;-66
2024/04/10 05:54:10;;;;;;;;;30.75;27.00;;;;;;;;6491422;31;9011;-66
2024/04/10 06:00:12;;;;;;;;;29.33;27.67;;;;;;;;6492680;39;8943;-65
2024/04/10 06:06:13;;;;;;;;;30.00;28.25;;;;;;;;6491769;46;8954;-65
2024/04/10 06:12:18;;;;;;;;;30.50;27.75;;;;;;;;6493428;46;8936;-64
2024/04/10 06:18:18;;;;;;;;;26.00;25.00;;;;;;;;6493499;39;9774;-63
2024/04/10 06:24:23;;;;;;;;;22.00;22.00;;;;;;;;6492384;46;9110;-65
2024/04/10 06:30:25;;;;;;;;;21.50;20.50;;;;;;;;6493046;39;9037;-65
2024/04/10 06:36:26;;;;;;;;;17.00;15.33;;;;;;;;6492433;31;9034;-63
2024/04/10 06:42:28;;;;;;;;;23.00;21.00;;;;;;;;6491700;39;9597;-65
2024/04/10 06:48:32;;;;;;;;;24.67;21.00;;;;;;;;6492340;31;8907;-67
2024/04/10 06:54:34;;;;;;;;;21.33;20.67;;;;;;;;6490559;31;8926;-66
2024/04/10 07:00:36;;;;;;;;;15.00;14.00;;;;;;;;6490895;39;9099;-64
2024/04/10 07:06:38;;;;;;;;;14.33;12.00;;;;;;;;6490458;39;9654;-66
2024/04/10 07:12:44;;;;;;;;;11.00;11.00;;;;;;;;6490337;39;8884;-66
2024/04/10 07:18:49;;;;;;;;;12.33;12.00;;;;;;;;6491781;39;9580;-67
2024/04/10 07:24:50;;;;;;;;;13.33;13.33;;;;;;;;6490591;31;8905;-67
2024/04/10 07:30:53;;;;;;;;;16.00;15.33;;;;;;;;6489320;46;8928;-67
2024/04/10 07:36:54;;;;;;;;;8.67;8.67;;;;;;;;6491692;31;8989;-66
2024/04/10 07:42:55;;;;;;;;;14.00;14.00;;;;;;;;6491321;46;9360;-67
2024/04/10 07:48:58;;;;;;;;;15.33;12.67;;;;;;;;6491929;39;8900;-67
2024/04/10 07:55:00;;;;;;;;;9.00;9.00;;;;;;;;6491889;39;9605;-64
2024/04/10 08:01:03;;;;;;;;;11.33;10.67;;;;;;;;6492870;31;8944;-75
2024/04/10 08:07:08;;;;;;;;;18.67;16.00;;;;;;;;6491980;39;8960;-77
2024/04/10 08:13:15;;;;;;;;;7.67;6.00;;;;;;;;6493070;39;8933;-75
2024/04/10 08:19:17;;;;;;;;;14.67;14.67;;;;;;;;6495137;31;9034;-74
2024/04/10 08:25:18;;;;;;;;;8.25;7.75;;;;;;;;6494778;31;8924;-77
2024/04/10 08:31:24;;;;;;;;;26.00;24.33;;;;;;;;6492515;39;8881;-77
2024/04/10 08:37:25;;;;;;;;;14.67;14.67;;;;;;;;6491062;39;8948;-78
2024/04/10 08:43:34;;;;;;;;;27.67;25.33;;;;;;;;6492094;31;9342;-77
2024/04/10 08:49:39;;;;;;;;;29.33;28.33;;;;;;;;6491247;39;8928;-76
2024/04/10 08:55:43;;;;;;;;;25.00;24.00;;;;;;;;6491101;31;9721;-76
2024/04/10 09:01:45;;;;;;;;;9.33;9.33;;;;;;;;6492178;39;8961;-75
2024/04/10 09:07:57;;;;;;;;;10.25;10.25;;;;;;;;6488704;39;9047;-76
2024/04/10 09:14:07;;;;;;;;;7.50;6.50;;;;;;;;6490511;46;9027;-74
2024/04/10 09:20:17;;;;;;;;;2.00;2.00;;;;;;;;6492579;39;9085;-76
2024/04/10 09:26:20;;;;;;;;;8.00;7.00;;;;;;;;6490407;31;9020;-76
2024/04/10 09:32:23;;;;;;;;;10.67;10.67;;;;;;;;6490754;47;8925;-75
2024/04/10 09:38:28;;;;;;;;;8.00;8.00;;;;;;;;6490648;39;8969;-76
2024/04/10 09:44:32;;;;;;;;;6.50;5.75;;;;;;;;6492103;39;8869;-76
2024/04/10 09:50:42;;;;;;;;;14.00;12.25;;;;;;;;6490257;47;8902;-75
2024/04/10 09:56:44;;;;;;;;;6.00;5.00;;;;;;;;6490757;39;9063;-77
2024/04/10 10:02:47;;;;;;;;;6.25;6.00;;;;;;;;6490994;39;8949;-76
2024/04/10 10:08:51;;;;;;;;;7.00;7.00;;;;;;;;6490161;47;8941;-75
2024/04/10 10:14:54;;;;;;;;;13.33;12.67;;;;;;;;6491491;47;8858;-77
2024/04/10 10:21:06;;;;;;;;;84.00;76.25;;;;;;;;6491368;39;8874;-76
2024/04/10 10:27:06;;;;;;;;;14.00;14.00;;;;;;;;6490318;47;8918;-77
2024/04/10 10:33:10;;;;;;;;;10.00;8.00;;;;;;;;6491682;47;8917;-79
2024/04/10 10:39:15;;;;;;;;;10.50;9.75;;;;;;;;6491391;39;8940;-79
2024/04/10 10:45:16;;;;;;;;;65.00;50.33;;;;;;;;6492907;39;8977;-77
2024/04/10 10:51:18;;;;;;;;;10.75;10.75;;;;;;;;6491650;39;8918;-77
2024/04/10 10:57:20;;;;;;;;;7.50;7.50;;;;;;;;6492616;31;9051;-77
2024/04/10 11:03:22;;;;;;;;;12.25;10.00;;;;;;;;6493637;39;8952;-77
2024/04/10 11:09:25;;;;;;;;;7.50;7.50;;;;;;;;6492496;46;8926;-76
2024/04/10 11:15:27;;;;;;;;;13.50;11.50;;;;;;;;6493507;39;9600;-78
2024/04/10 11:21:30;;;;;;;;;10.75;10.00;;;;;;;;6492266;46;9059;-78
2024/04/10 11:27:31;;;;;;;;;15.50;14.00;;;;;;;;6491547;46;9034;-78
2024/04/10 11:33:32;;;;;;;;;7.00;6.50;;;;;;;;6492985;46;8902;-78
2024/04/10 11:39:33;;;;;;;;;8.25;8.00;;;;;;;;6492378;39;9116;-78
2024/04/10 11:45:35;;;;;;;;;8.75;7.50;;;;;;;;6493859;31;9107;-76
2024/04/10 11:51:39;;;;;;;;;49.67;41.00;;;;;;;;6492586;39;8982;-78
2024/04/10 11:57:41;;;;;;;;;6.00;6.00;;;;;;;;6490161;46;8999;-79
2024/04/10 12:03:46;;;;;;;;;22.67;22.67;;;;;;;;6493065;39;9071;-75
2024/04/10 12:09:48;;;;;;;;;6.25;6.25;;;;;;;;6492302;39;8965;-76
2024/04/10 12:15:51;;;;;;;;;14.50;13.25;;;;;;;;6492636;46;8865;-77
2024/04/10 12:21:55;;;;;;;;;16.25;15.00;;;;;;;;6490879;31;8930;-71
2024/04/10 12:27:56;;;;;;;;;30.67;27.00;;;;;;;;6490608;39;8978;-71
2024/04/10 12:34:00;;;;;;;;;7.50;7.50;;;;;;;;6492462;31;9013;-69
2024/04/10 12:40:03;;;;;;;;;24.67;22.67;;;;;;;;6491534;39;9103;-70
2024/04/10 12:46:06;;;;;;;;;46.00;37.33;;;;;;;;6490975;39;8884;-73
2024/04/10 12:52:09;;;;;;;;;1.75;1.00;;;;;;;;6490778;46;9016;-73
2024/04/10 12:58:11;;;;;;;;;40.67;35.00;;;;;;;;6490674;46;8933;-74
2024/04/10 13:04:12;;;;;;;;;6.75;6.00;;;;;;;;6492881;39;8965;-73
2024/04/10 13:10:13;;;;;;;;;7.00;6.00;;;;;;;;6491804;31;9021;-74
2024/04/10 13:16:15;;;;;;;;;48.00;37.33;;;;;;;;6492267;39;8897;-73
2024/04/10 13:22:16;;;;;;;;;10.75;10.75;;;;;;;;6492508;31;9014;-72
2024/04/10 13:28:17;;;;;;;;;6.25;5.25;;;;;;;;6491812;39;8951;-75
2024/04/10 13:34:19;;;;;;;;;21.25;19.50;;;;;;;;6489330;46;8920;-73
2024/04/10 13:40:22;;;;;;;;;8.00;8.00;;;;;;;;6488945;46;8956;-74
2024/04/10 13:46:23;;;;;;;;;7.75;7.50;;;;;;;;6534454;36;9066;-73
2024/04/10 13:52:27;;;;;;;;;7.50;7.50;;;;;;;;6492332;47;8905;-75
2024/04/10 13:58:28;;;;;;;;;13.25;12.25;;;;;;;;6491891;39;9678;-74
2024/04/10 14:04:30;;;;;;;;;14.50;14.50;;;;;;;;6492427;31;9622;-75
2024/04/10 14:10:35;;;;;;;;;8.75;7.75;;;;;;;;6492004;31;8875;-74
2024/04/10 14:16:41;;;;;;;;;18.75;17.50;;;;;;;;6491111;47;8899;-75
2024/04/10 14:22:43;;;;;;;;;39.00;34.00;;;;;;;;6555575;36;8889;-75
2024/04/10 14:28:44;;;;;;;;;28.00;26.67;;;;;;;;6497841;39;8912;-75
2024/04/10 14:34:45;;;;;;;;;18.25;17.00;;;;;;;;6494112;46;8852;-75
2024/04/10 14:40:52;;;;;;;;;12.00;9.50;;;;;;;;6492953;39;8943;-73
2024/04/10 14:46:54;;;;;;;;;12.33;10.33;;;;;;;;6494079;39;9021;-76
2024/04/10 14:52:55;;;;;;;;;8.00;8.00;;;;;;;;6494726;39;8906;-74
2024/04/10 14:58:58;;;;;;;;;15.25;14.00;;;;;;;;6493560;39;8929;-75
2024/04/10 15:05:01;;;;;;;;;8.75;8.75;;;;;;;;6493890;46;8910;-75
2024/04/10 15:11:04;;;;;;;;;10.50;10.50;;;;;;;;6492442;39;8925;-75
2024/04/10 15:17:06;;;;;;;;;13.25;10.50;;;;;;;;6493481;39;8890;-75
2024/04/10 15:23:08;;;;;;;;;8.00;8.00;;;;;;;;6493593;46;8882;-75
2024/04/10 15:29:10;;;;;;;;;8.25;7.75;;;;;;;;6493132;46;8989;-75
2024/04/10 15:35:11;;;;;;;;;18.75;18.75;;;;;;;;6493975;39;8926;-75
2024/04/10 15:41:14;;;;;;;;;16.00;13.67;;;;;;;;6492949;39;8932;-75
2024/04/10 15:47:16;;;;;;;;;14.75;14.75;;;;;;;;6493302;39;8967;-75
2024/04/10 15:53:20;;;;;;;;;14.00;13.75;;;;;;;;6493857;39;8995;-74
2024/04/10 15:59:21;;;;;;;;;10.25;10.25;;;;;;;;6494041;39;9556;-77
2024/04/10 16:05:33;;;;;;;;;10.50;10.50;;;;;;;;6493019;39;8885;-74
2024/04/10 16:11:40;;;;;;;;;8.75;8.75;;;;;;;;6493008;39;8872;-75
2024/04/10 16:17:42;;;;;;;;;11.00;8.00;;;;;;;;6492842;46;8963;-75
2024/04/10 16:23:48;;;;;;;;;9.75;9.75;;;;;;;;6493972;39;9511;-76
2024/04/10 16:29:50;;;;;;;;;8.75;8.25;;;;;;;;6493201;31;8885;-74
2024/04/10 16:35:51;;;;;;;;;11.75;10.75;;;;;;;;6494909;39;8854;-76
2024/04/10 16:41:53;;;;;;;;;9.00;9.00;;;;;;;;6493220;39;9686;-74
2024/04/10 16:47:55;;;;;;;;;19.33;17.67;;;;;;;;6492523;39;8878;-73
2024/04/10 16:53:56;;;;;;;;;15.00;15.00;;;;;;;;6492529;31;9528;-74
2024/04/10 16:59:58;;;;;;;;;15.67;15.67;;;;;;;;6491957;39;8934;-74
2024/04/10 17:06:01;;;;;;;;;13.67;12.33;;;;;;;;6493569;39;8968;-76
2024/04/10 17:12:03;;;;;;;;;16.33;12.67;;;;;;;;6491719;39;10202;-78
2024/04/10 17:24:27;;;;;;;;;17.67;17.67;;;;;;;;6492062;39;8913;-73
2024/04/10 17:30:30;;;;;;;;;15.00;15.00;;;;;;;;6491295;46;8950;-74
2024/04/10 17:36:32;;;;;;;;;12.67;12.00;;;;;;;;6492100;39;8964;-74
2024/04/10 17:42:33;;;;;;;;;11.67;11.67;;;;;;;;6492195;39;9009;-74
2024/04/10 17:48:35;;;;;;;;;33.67;29.67;;;;;;;;6492051;39;8885;-76
2024/04/10 17:54:36;;;;;;;;;11.33;8.67;;;;;;;;6491669;39;8909;-73
2024/04/10 18:00:39;;;;;;;;;13.00;13.00;;;;;;;;6491631;39;9688;-74
2024/04/10 18:06:43;;;;;;;;;13.00;13.00;;;;;;;;6495530;31;8910;-73
2024/04/10 18:12:45;;;;;;;;;16.67;15.00;;;;;;;;6494083;46;8889;-76
2024/04/10 18:18:50;;;;;;;;;25.33;23.67;;;;;;;;6494540;46;8930;-74
2024/04/10 18:24:52;;;;;;;;;16.67;15.67;;;;;;;;6494079;39;9691;-75
2024/04/10 18:31:14;;;;;;;;;17.67;15.33;;;;;;;;6496709;39;9009;-74
2024/04/10 18:37:16;;;;;;;;;14.33;13.67;;;;;;;;6496888;39;9012;-75
2024/04/10 18:43:18;;;;;;;;;21.67;19.00;;;;;;;;6494868;39;8933;-74
2024/04/10 18:49:21;;;;;;;;;15.00;13.33;;;;;;;;6494180;46;8893;-75
2024/04/10 18:55:25;;;;;;;;;15.33;13.67;;;;;;;;6493746;39;8902;-73
2024/04/10 19:01:27;;;;;;;;;16.33;15.33;;;;;;;;6495661;39;8970;-74
2024/04/10 19:07:29;;;;;;;;;15.67;14.00;;;;;;;;6493971;46;8968;-75
2024/04/10 19:13:30;;;;;;;;;18.67;17.67;;;;;;;;6495127;39;8901;-75
2024/04/10 19:19:31;;;;;;;;;21.67;19.33;;;;;;;;6494513;39;8885;-73
2024/04/10 19:25:35;;;;;;;;;20.00;20.00;;;;;;;;6493811;39;8861;-73
2024/04/10 19:31:36;;;;;;;;;20.33;20.33;;;;;;;;6493145;31;8905;-76
2024/04/10 19:37:43;;;;;;;;;20.33;18.00;;;;;;;;6494714;31;8874;-75
2024/04/10 19:43:48;;;;;;;;;21.00;16.67;;;;;;;;6492729;39;8965;-75
2024/04/10 19:49:51;;;;;;;;;20.33;19.67;;;;;;;;6492747;39;8973;-74
2024/04/10 19:55:58;;;;;;;;;23.00;22.00;;;;;;;;6492628;31;8942;-73
2024/04/10 20:02:00;;;;;;;;;22.00;19.00;;;;;;;;6493940;31;9056;-74
2024/04/10 20:08:05;;;;;;;;;28.67;25.00;;;;;;;;6493784;39;9573;-74
2024/04/10 20:14:07;;;;;;;;;23.33;19.67;;;;;;;;6493326;31;8937;-75
2024/04/10 20:20:10;;;;;;;;;23.67;21.33;;;;;;;;6493913;39;8893;-75
2024/04/10 20:26:16;;;;;;;;;29.33;24.33;;;;;;;;6492386;39;8989;-75
2024/04/10 20:32:17;;;;;;;;;25.67;22.00;;;;;;;;6493366;39;9493;-76
2024/04/10 20:38:21;;;;;;;;;26.33;24.67;;;;;;;;6492434;46;8956;-75
2024/04/10 20:44:27;;;;;;;;;22.67;19.67;;;;;;;;6492606;39;8858;-75
2024/04/10 20:50:28;;;;;;;;;26.67;22.33;;;;;;;;6491999;39;8936;-74
2024/04/10 20:56:32;;;;;;;;;20.00;20.00;;;;;;;;6493070;39;8874;-75
2024/04/10 21:02:35;;;;;;;;;22.67;19.33;;;;;;;;6492788;31;8957;-76
2024/04/10 22:12:07;;;;;;;;;21.67;19.33;;;;;;;;6492161;47;9406;-75
2024/04/10 22:24:37;;;;;;;;;25.67;24.33;;;;;;;;6491676;46;8858;-73
2024/04/10 22:30:40;;;;;;;;;23.67;20.00;;;;;;;;6492244;39;9568;-74
2024/04/10 22:36:42;;;;;;;;;17.00;16.00;;;;;;;;6491658;39;8960;-75
2024/04/10 22:42:44;;;;;;;;;19.33;18.33;;;;;;;;6492090;31;8933;-74
2024/04/10 22:48:47;;;;;;;;;20.67;19.00;;;;;;;;6493411;39;9448;-75
2024/04/10 22:54:51;;;;;;;;;23.00;20.33;;;;;;;;6493434;46;8929;-73
2024/04/10 23:00:55;;;;;;;;;18.33;18.33;;;;;;;;6493407;46;8966;-74
2024/04/10 23:06:55;;;;;;;;;22.00;20.67;;;;;;;;6493398;46;8894;-72
2024/04/10 23:12:57;;;;;;;;;19.67;19.00;;;;;;;;6493353;39;8873;-73
2024/04/10 23:18:59;;;;;;;;;23.67;22.00;;;;;;;;6492861;46;8858;-72
2024/04/10 23:25:03;;;;;;;;;20.25;16.25;;;;;;;;6493798;39;8874;-74
2024/04/10 23:31:07;;;;;;;;;23.00;21.33;;;;;;;;6494887;31;9012;-74
2024/04/10 23:37:08;;;;;;;;;21.00;18.75;;;;;;;;6505828;46;8910;-74
2024/04/10 23:43:11;;;;;;;;;28.75;24.50;;;;;;;;6499422;39;8997;-73
2024/04/10 23:49:15;;;;;;;;;23.25;20.50;;;;;;;;6492056;46;8882;-74
2024/04/10 23:55:17;;;;;;;;;24.00;22.25;;;;;;;;6494810;39;9296;-74
